11:16
Airports
History
Links
Donate
Help keep this website running!
PayPal
Bitcoin
This page is community maintained. The information is intended for PC simulator navigation or reference.
Always use approved charts for navigation.
SBBV
Boa Vista Intl
Boa Vista Intl (SBBV)
Boa Vista, Roraima, Brazil (69310)
(C)
Lat/Lng:2° 50' 46.72" N / 60° 41' 24.24" W
2.846311 / -60.690068
Elevation:275'ft / 84mMSL
ID / ICAO:SBBV
Runways:1
Longest:08-26
Asphalt 2,704m / 8,870ft
Controlled:Yes
Beacon:Green
METAR11:00 GMT 2018-01-17
Altimeter: 29.88
Visibility: 6.2 statute miles
Wind: 4 knots (from 090°)
Temp: 24°c / 75°f
Humidity: 88.6%

METAR: SBBV 171100Z 09004KT 9999 FEW020 BKN070 BKN100 24/22 Q1012

(Powered by phpweather)
Airport Radio Frequencies
Ground: 121.7
Tower: 118.1
Approach: 120.1
Nearby VORs <50NM
Nearby NDBs
Runway 08 / 26
Dimensions:2703.7 x 45.1m 8870' x 148'ft
Surface:Asphalt
Edge Lights:Medium intensity
Runway 08 [A]Runway 26 [B]
Heading:062°TH 242°TH
Lat:
Lng:
2° 50' 26.77"N
60° 42' 3.24"W
2° 51' 6.67"N
60° 40' 45.25"W
ALS:SALS
User Notes and Comments
2° 50' 46.72" N / 60° 41' 24.24" W
Distance To
Airport ID:
Nearby Airports
4 Ouro Fino 6.7 NM
SWOF NNW 341°
4 Novo Intento 6.8 NM
SWNN SE 132°
(U) Pouso da Aguia 8.3 NM
SWPD ESE 121°
4 Estancia Norteagro 13.3 NM
SWQR SSW 207°
4 Barra do Vento 13.5 NM
SJQK SW 219°
4 Fazenda Sao Marco 20.0 NM
SWSK NE 45°
4 Milho 42.0 NM
SJLT NNE 27°
VFR Chart
Flight Planning at SkyVector.com